sensor_id;sensor_type;location;lat;lon;timestamp;pressure;altitude;pressure_sealevel;temperature;humidity
10261;BME280;5175;42.606;23.388;2023-02-01T00:01:49;93792.66;;;0.94;100.00
10261;BME280;5175;42.606;23.388;2023-02-01T00:04:15;93789.09;;;0.88;100.00
10261;BME280;5175;42.606;23.388;2023-02-01T00:06:42;93805.41;;;0.90;100.00
10261;BME280;5175;42.606;23.388;2023-02-01T00:09:09;93794.34;;;1.06;100.00
10261;BME280;5175;42.606;23.388;2023-02-01T00:11:37;93790.56;;;1.02;100.00
10261;BME280;5175;42.606;23.388;2023-02-01T00:14:04;93785.59;;;1.12;100.00
10261;BME280;5175;42.606;23.388;2023-02-01T00:16:31;93792.38;;;1.20;99.43
10261;BME280;5175;42.606;23.388;2023-02-01T00:19:00;93785.31;;;1.02;99.35
10261;BME280;5175;42.606;23.388;2023-02-01T00:21:28;93788.22;;;1.12;99.50
10261;BME280;5175;42.606;23.388;2023-02-01T00:23:55;93797.97;;;1.23;98.71
10261;BME280;5175;42.606;23.388;2023-02-01T00:26:27;93792.78;;;1.17;99.17
10261;BME280;5175;42.606;23.388;2023-02-01T00:28:58;93792.69;;;1.23;97.67
10261;BME280;5175;42.606;23.388;2023-02-01T00:31:25;93746.94;;;0.83;98.54
10261;BME280;5175;42.606;23.388;2023-02-01T00:33:51;93785.78;;;1.11;97.92
10261;BME280;5175;42.606;23.388;2023-02-01T00:36:18;93792.13;;;1.03;98.87
10261;BME280;5175;42.606;23.388;2023-02-01T00:38:45;93786.03;;;1.09;97.64
10261;BME280;5175;42.606;23.388;2023-02-01T00:41:13;93774.50;;;0.92;96.89
10261;BME280;5175;42.606;23.388;2023-02-01T00:43:41;93772.53;;;0.88;97.22
10261;BME280;5175;42.606;23.388;2023-02-01T00:46:10;93766.78;;;0.79;96.41
10261;BME280;5175;42.606;23.388;2023-02-01T00:48:37;93759.03;;;0.66;96.33
10261;BME280;5175;42.606;23.388;2023-02-01T00:51:06;93781.63;;;0.85;95.94
10261;BME280;5175;42.606;23.388;2023-02-01T00:53:34;93777.47;;;0.78;94.87
10261;BME280;5175;42.606;23.388;2023-02-01T00:56:02;93778.50;;;0.58;94.83
10261;BME280;5175;42.606;23.388;2023-02-01T00:58:29;93773.97;;;0.47;94.29
10261;BME280;5175;42.606;23.388;2023-02-01T01:01:03;93760.97;;;0.34;95.68
10261;BME280;5175;42.606;23.388;2023-02-01T01:03:34;93773.16;;;0.47;95.04
10261;BME280;5175;42.606;23.388;2023-02-01T01:06:04;93780.72;;;0.37;95.30
10261;BME280;5175;42.606;23.388;2023-02-01T01:08:32;93611.91;;;-0.73;95.07
10261;BME280;5175;42.606;23.388;2023-02-01T01:10:59;93771.81;;;0.20;95.81
10261;BME280;5175;42.606;23.388;2023-02-01T01:13:30;93773.41;;;0.21;96.21
10261;BME280;5175;42.606;23.388;2023-02-01T01:15:59;93772.78;;;0.25;96.09
10261;BME280;5175;42.606;23.388;2023-02-01T01:18:28;93769.56;;;0.41;95.77
10261;BME280;5175;42.606;23.388;2023-02-01T01:20:56;93765.50;;;0.27;94.49
10261;BME280;5175;42.606;23.388;2023-02-01T01:23:23;93771.34;;;0.47;94.74
10261;BME280;5175;42.606;23.388;2023-02-01T01:25:50;93792.72;;;0.26;92.27
10261;BME280;5175;42.606;23.388;2023-02-01T01:28:16;93766.22;;;0.34;92.63
10261;BME280;5175;42.606;23.388;2023-02-01T01:30:43;93781.91;;;0.41;90.77
10261;BME280;5175;42.606;23.388;2023-02-01T01:33:10;93773.25;;;0.40;90.34
10261;BME280;5175;42.606;23.388;2023-02-01T01:35:37;93776.66;;;0.41;90.12
10261;BME280;5175;42.606;23.388;2023-02-01T01:38:05;93786.13;;;0.42;90.43
10261;BME280;5175;42.606;23.388;2023-02-01T01:40:31;93787.59;;;0.38;89.12
10261;BME280;5175;42.606;23.388;2023-02-01T01:42:58;93791.53;;;0.47;89.04
10261;BME280;5175;42.606;23.388;2023-02-01T01:45:27;93798.97;;;0.50;88.23
10261;BME280;5175;42.606;23.388;2023-02-01T01:47:56;93800.47;;;0.39;86.92
10261;BME280;5175;42.606;23.388;2023-02-01T01:50:27;93798.09;;;0.38;88.59
10261;BME280;5175;42.606;23.388;2023-02-01T01:52:58;93796.47;;;0.37;88.44
10261;BME280;5175;42.606;23.388;2023-02-01T01:55:28;93802.69;;;0.42;87.60
10261;BME280;5175;42.606;23.388;2023-02-01T01:57:59;93792.41;;;0.41;86.98
10261;BME280;5175;42.606;23.388;2023-02-01T02:00:26;93805.06;;;0.44;87.59
10261;BME280;5175;42.606;23.388;2023-02-01T02:02:58;93787.50;;;0.44;89.31
10261;BME280;5175;42.606;23.388;2023-02-01T02:05:25;93779.75;;;0.56;88.63
10261;BME280;5175;42.606;23.388;2023-02-01T02:07:57;93781.47;;;0.44;88.76
10261;BME280;5175;42.606;23.388;2023-02-01T02:10:24;93791.59;;;0.40;87.39
10261;BME280;5175;42.606;23.388;2023-02-01T02:13:13;93779.75;;;0.31;87.96
10261;BME280;5175;42.606;23.388;2023-02-01T02:15:44;93778.50;;;0.16;88.62
10261;BME280;5175;42.606;23.388;2023-02-01T02:18:18;93765.38;;;-0.09;90.96
10261;BME280;5175;42.606;23.388;2023-02-01T02:20:55;93762.13;;;-0.05;91.48
10261;BME280;5175;42.606;23.388;2023-02-01T02:24:09;93764.91;;;0.00;90.54
10261;BME280;5175;42.606;23.388;2023-02-01T02:27:06;93765.78;;;-0.06;90.11
10261;BME280;5175;42.606;23.388;2023-02-01T02:30:29;93754.09;;;-0.10;89.68
10261;BME280;5175;42.606;23.388;2023-02-01T02:33:39;93751.91;;;-0.13;89.10
10261;BME280;5175;42.606;23.388;2023-02-01T02:36:12;93759.00;;;-0.20;88.74
10261;BME280;5175;42.606;23.388;2023-02-01T02:38:49;93766.13;;;-0.27;88.91
10261;BME280;5175;42.606;23.388;2023-02-01T02:41:19;93759.81;;;-0.19;88.55
10261;BME280;5175;42.606;23.388;2023-02-01T02:44:13;93761.78;;;-0.15;88.50
10261;BME280;5175;42.606;23.388;2023-02-01T02:47:11;93771.69;;;-0.17;86.74
10261;BME280;5175;42.606;23.388;2023-02-01T02:49:58;93765.91;;;-0.25;87.84
10261;BME280;5175;42.606;23.388;2023-02-01T02:52:50;93753.09;;;-0.09;88.05
10261;BME280;5175;42.606;23.388;2023-02-01T02:55:37;93750.97;;;-0.18;88.61
10261;BME280;5175;42.606;23.388;2023-02-01T02:58:07;93739.41;;;-0.11;87.40
10261;BME280;5175;42.606;23.388;2023-02-01T03:00:53;93747.09;;;-0.16;87.24
10261;BME280;5175;42.606;23.388;2023-02-01T03:03:39;93725.84;;;-0.57;87.12
10261;BME280;5175;42.606;23.388;2023-02-01T03:06:24;93758.06;;;-0.01;86.74
10261;BME280;5175;42.606;23.388;2023-02-01T03:08:54;93768.44;;;0.13;84.55
10261;BME280;5175;42.606;23.388;2023-02-01T03:11:25;93769.47;;;0.12;84.83
10261;BME280;5175;42.606;23.388;2023-02-01T03:14:14;93782.34;;;0.13;83.49
10261;BME280;5175;42.606;23.388;2023-02-01T03:16:46;93787.66;;;0.07;84.07
10261;BME280;5175;42.606;23.388;2023-02-01T03:19:16;93796.00;;;0.22;82.55
10261;BME280;5175;42.606;23.388;2023-02-01T03:21:48;93799.84;;;0.19;83.37
10261;BME280;5175;42.606;23.388;2023-02-01T03:24:19;93797.00;;;0.21;83.37
10261;BME280;5175;42.606;23.388;2023-02-01T03:26:53;93804.72;;;0.16;83.34
10261;BME280;5175;42.606;23.388;2023-02-01T03:29:25;93806.34;;;0.17;84.08
10261;BME280;5175;42.606;23.388;2023-02-01T03:31:54;93798.84;;;0.20;84.27
10261;BME280;5175;42.606;23.388;2023-02-01T03:34:21;93789.53;;;0.24;83.36
10261;BME280;5175;42.606;23.388;2023-02-01T03:36:54;93799.16;;;0.30;83.76
10261;BME280;5175;42.606;23.388;2023-02-01T03:39:29;93810.00;;;0.34;82.86
10261;BME280;5175;42.606;23.388;2023-02-01T03:42:00;93806.38;;;0.35;83.29
10261;BME280;5175;42.606;23.388;2023-02-01T03:44:32;93802.41;;;0.26;84.43
10261;BME280;5175;42.606;23.388;2023-02-01T03:47:03;93812.22;;;0.37;84.54
10261;BME280;5175;42.606;23.388;2023-02-01T03:49:35;93805.31;;;0.42;85.17
10261;BME280;5175;42.606;23.388;2023-02-01T03:52:06;93798.44;;;0.41;85.45
10261;BME280;5175;42.606;23.388;2023-02-01T03:54:34;93799.41;;;0.47;84.79
10261;BME280;5175;42.606;23.388;2023-02-01T03:57:04;93796.13;;;0.51;84.59
10261;BME280;5175;42.606;23.388;2023-02-01T03:59:33;93802.19;;;0.52;84.28
10261;BME280;5175;42.606;23.388;2023-02-01T04:01:59;93786.50;;;0.45;85.40
10261;BME280;5175;42.606;23.388;2023-02-01T04:04:26;93798.69;;;0.58;84.69
10261;BME280;5175;42.606;23.388;2023-02-01T04:06:53;93789.72;;;0.47;85.26
10261;BME280;5175;42.606;23.388;2023-02-01T04:09:21;93804.16;;;0.38;85.53
10261;BME280;5175;42.606;23.388;2023-02-01T04:11:48;93795.19;;;0.46;85.28
10261;BME280;5175;42.606;23.388;2023-02-01T04:14:14;93788.06;;;0.53;84.62
10261;BME280;5175;42.606;23.388;2023-02-01T04:16:41;93791.56;;;0.65;84.73
10261;BME280;5175;42.606;23.388;2023-02-01T04:19:08;93790.53;;;0.48;85.80
10261;BME280;5175;42.606;23.388;2023-02-01T04:21:34;93790.41;;;0.61;85.72
10261;BME280;5175;42.606;23.388;2023-02-01T04:24:01;93798.72;;;0.76;85.33
10261;BME280;5175;42.606;23.388;2023-02-01T04:26:29;93784.78;;;0.76;85.02
10261;BME280;5175;42.606;23.388;2023-02-01T04:28:56;93805.13;;;0.80;85.13
10261;BME280;5175;42.606;23.388;2023-02-01T04:31:23;93802.59;;;0.74;85.78
10261;BME280;5175;42.606;23.388;2023-02-01T04:33:52;93811.91;;;0.70;87.04
10261;BME280;5175;42.606;23.388;2023-02-01T04:36:19;93816.09;;;0.52;88.84
10261;BME280;5175;42.606;23.388;2023-02-01T04:38:48;93803.38;;;0.56;89.64
10261;BME280;5175;42.606;23.388;2023-02-01T04:41:14;93793.88;;;0.55;89.87
10261;BME280;5175;42.606;23.388;2023-02-01T04:43:45;93804.38;;;0.55;90.55
10261;BME280;5175;42.606;23.388;2023-02-01T04:46:12;93796.00;;;0.64;90.77
10261;BME280;5175;42.606;23.388;2023-02-01T04:48:38;93800.50;;;0.57;91.28
10261;BME280;5175;42.606;23.388;2023-02-01T04:51:06;93802.75;;;0.54;91.80
10261;BME280;5175;42.606;23.388;2023-02-01T04:53:32;93780.97;;;0.53;91.61
10261;BME280;5175;42.606;23.388;2023-02-01T04:55:59;93798.19;;;0.68;91.40
10261;BME280;5175;42.606;23.388;2023-02-01T04:58:26;93797.75;;;0.71;92.10
10261;BME280;5175;42.606;23.388;2023-02-01T05:00:54;93797.91;;;0.76;92.35
10261;BME280;5175;42.606;23.388;2023-02-01T05:03:20;93798.88;;;0.81;91.33
10261;BME280;5175;42.606;23.388;2023-02-01T05:05:47;93804.47;;;0.67;92.52
10261;BME280;5175;42.606;23.388;2023-02-01T05:08:14;93810.50;;;0.67;93.80
10261;BME280;5175;42.606;23.388;2023-02-01T05:10:41;93809.94;;;0.65;95.71
10261;BME280;5175;42.606;23.388;2023-02-01T05:13:08;93817.38;;;0.68;95.58
10261;BME280;5175;42.606;23.388;2023-02-01T05:15:54;93808.69;;;0.68;95.49
10261;BME280;5175;42.606;23.388;2023-02-01T05:18:20;93829.03;;;0.72;95.33
10261;BME280;5175;42.606;23.388;2023-02-01T05:20:47;93826.28;;;0.85;94.18
10261;BME280;5175;42.606;23.388;2023-02-01T05:23:14;93824.47;;;0.86;93.60
10261;BME280;5175;42.606;23.388;2023-02-01T05:25:40;93824.69;;;0.84;93.92
10261;BME280;5175;42.606;23.388;2023-02-01T05:28:07;93813.38;;;0.84;94.51
10261;BME280;5175;42.606;23.388;2023-02-01T05:30:34;93824.03;;;0.89;94.27
10261;BME280;5175;42.606;23.388;2023-02-01T05:33:02;93806.16;;;0.79;95.27
10261;BME280;5175;42.606;23.388;2023-02-01T05:35:29;93819.94;;;0.93;94.58
10261;BME280;5175;42.606;23.388;2023-02-01T05:37:56;93819.50;;;0.96;94.43
10261;BME280;5175;42.606;23.388;2023-02-01T05:40:22;93823.59;;;0.92;94.20
10261;BME280;5175;42.606;23.388;2023-02-01T05:42:49;93814.81;;;0.80;95.22
10261;BME280;5175;42.606;23.388;2023-02-01T05:45:16;93814.09;;;0.91;94.22
10261;BME280;5175;42.606;23.388;2023-02-01T05:47:43;93824.25;;;0.87;94.91
10261;BME280;5175;42.606;23.388;2023-02-01T05:50:11;93812.13;;;0.86;94.41
10261;BME280;5175;42.606;23.388;2023-02-01T05:52:38;93815.22;;;1.01;93.09
10261;BME280;5175;42.606;23.388;2023-02-01T05:55:05;93819.06;;;0.99;92.73
10261;BME280;5175;42.606;23.388;2023-02-01T05:57:32;93801.19;;;1.07;92.08
10261;BME280;5175;42.606;23.388;2023-02-01T05:59:58;93826.44;;;1.08;91.56
10261;BME280;5175;42.606;23.388;2023-02-01T06:02:25;93817.41;;;1.04;90.21
10261;BME280;5175;42.606;23.388;2023-02-01T06:04:52;93823.94;;;1.13;89.40
10261;BME280;5175;42.606;23.388;2023-02-01T06:07:20;93815.94;;;1.08;88.18
10261;BME280;5175;42.606;23.388;2023-02-01T06:09:47;93831.19;;;1.18;88.19
10261;BME280;5175;42.606;23.388;2023-02-01T06:12:14;93829.88;;;1.27;86.79
10261;BME280;5175;42.606;23.388;2023-02-01T06:14:40;93832.78;;;1.19;87.39
10261;BME280;5175;42.606;23.388;2023-02-01T06:17:08;93831.81;;;1.32;86.56
10261;BME280;5175;42.606;23.388;2023-02-01T06:19:35;93841.69;;;1.36;85.99
10261;BME280;5175;42.606;23.388;2023-02-01T06:22:02;93835.94;;;1.27;87.04
10261;BME280;5175;42.606;23.388;2023-02-01T06:24:32;93838.97;;;1.43;85.48
10261;BME280;5175;42.606;23.388;2023-02-01T06:26:59;93848.09;;;1.40;83.68
10261;BME280;5175;42.606;23.388;2023-02-01T06:29:26;93843.66;;;1.41;84.52
10261;BME280;5175;42.606;23.388;2023-02-01T06:31:53;93841.22;;;1.39;83.08
10261;BME280;5175;42.606;23.388;2023-02-01T06:34:20;93842.81;;;1.58;82.91
10261;BME280;5175;42.606;23.388;2023-02-01T06:36:47;93850.88;;;1.45;83.78
10261;BME280;5175;42.606;23.388;2023-02-01T06:39:14;93830.56;;;1.52;82.70
10261;BME280;5175;42.606;23.388;2023-02-01T06:41:45;93837.91;;;1.62;82.35
10261;BME280;5175;42.606;23.388;2023-02-01T06:44:12;93841.00;;;1.59;81.94
10261;BME280;5175;42.606;23.388;2023-02-01T06:46:39;93840.41;;;1.57;81.37
10261;BME280;5175;42.606;23.388;2023-02-01T06:49:06;93847.41;;;1.63;81.11
10261;BME280;5175;42.606;23.388;2023-02-01T06:51:33;93850.47;;;1.60;80.56
10261;BME280;5175;42.606;23.388;2023-02-01T06:54:00;93849.84;;;1.64;81.28
10261;BME280;5175;42.606;23.388;2023-02-01T06:56:27;93854.34;;;1.57;82.09
10261;BME280;5175;42.606;23.388;2023-02-01T06:58:55;93856.00;;;1.70;81.76
10261;BME280;5175;42.606;23.388;2023-02-01T07:01:22;93851.56;;;1.70;81.33
10261;BME280;5175;42.606;23.388;2023-02-01T07:03:49;93854.75;;;1.72;82.00
10261;BME280;5175;42.606;23.388;2023-02-01T07:06:17;93865.94;;;1.68;81.38
10261;BME280;5175;42.606;23.388;2023-02-01T07:08:44;93872.69;;;1.64;81.66
10261;BME280;5175;42.606;23.388;2023-02-01T07:11:13;93875.31;;;1.64;81.78
10261;BME280;5175;42.606;23.388;2023-02-01T07:13:40;93887.50;;;1.76;80.94
10261;BME280;5175;42.606;23.388;2023-02-01T07:16:11;93885.94;;;1.87;79.86
10261;BME280;5175;42.606;23.388;2023-02-01T07:18:38;93885.31;;;1.73;80.53
10261;BME280;5175;42.606;23.388;2023-02-01T07:21:05;93897.59;;;1.79;80.91
10261;BME280;5175;42.606;23.388;2023-02-01T07:23:32;93902.91;;;1.73;81.07
10261;BME280;5175;42.606;23.388;2023-02-01T07:26:00;93906.88;;;1.94;80.36
10261;BME280;5175;42.606;23.388;2023-02-01T07:28:29;93897.84;;;1.89;80.80
10261;BME280;5175;42.606;23.388;2023-02-01T07:31:02;93893.56;;;1.77;80.03
10261;BME280;5175;42.606;23.388;2023-02-01T07:33:30;93916.91;;;1.85;80.24
10261;BME280;5175;42.606;23.388;2023-02-01T07:35:57;93917.41;;;1.94;79.15
10261;BME280;5175;42.606;23.388;2023-02-01T07:38:23;93909.22;;;2.02;77.95
10261;BME280;5175;42.606;23.388;2023-02-01T07:40:50;93912.41;;;2.04;77.97
10261;BME280;5175;42.606;23.388;2023-02-01T07:43:17;93920.25;;;2.10;78.49
10261;BME280;5175;42.606;23.388;2023-02-01T07:45:50;93932.22;;;2.06;76.46
10261;BME280;5175;42.606;23.388;2023-02-01T07:48:17;93923.63;;;1.99;77.18
10261;BME280;5175;42.606;23.388;2023-02-01T07:50:45;93925.00;;;2.02;77.23
10261;BME280;5175;42.606;23.388;2023-02-01T07:53:12;93915.88;;;2.16;76.81
10261;BME280;5175;42.606;23.388;2023-02-01T07:55:39;93932.63;;;2.21;75.90
10261;BME280;5175;42.606;23.388;2023-02-01T07:58:06;93928.47;;;2.14;75.71
10261;BME280;5175;42.606;23.388;2023-02-01T08:00:33;93937.03;;;2.09;76.04
10261;BME280;5175;42.606;23.388;2023-02-01T08:03:17;93951.22;;;2.08;75.53
10261;BME280;5175;42.606;23.388;2023-02-01T08:05:43;93950.19;;;2.09;75.51
10261;BME280;5175;42.606;23.388;2023-02-01T08:08:11;93926.19;;;1.87;75.95
10261;BME280;5175;42.606;23.388;2023-02-01T08:10:38;93942.34;;;1.91;76.15
10261;BME280;5175;42.606;23.388;2023-02-01T08:13:05;93946.72;;;1.97;77.03
10261;BME280;5175;42.606;23.388;2023-02-01T08:15:32;93949.84;;;2.06;76.61
10261;BME280;5175;42.606;23.388;2023-02-01T08:17:59;93949.97;;;2.11;76.13
10261;BME280;5175;42.606;23.388;2023-02-01T08:20:27;93959.91;;;2.09;75.86
10261;BME280;5175;42.606;23.388;2023-02-01T08:22:54;93937.28;;;2.08;76.13
10261;BME280;5175;42.606;23.388;2023-02-01T08:25:23;93933.66;;;2.20;76.56
10261;BME280;5175;42.606;23.388;2023-02-01T08:27:51;93933.13;;;2.30;75.87
10261;BME280;5175;42.606;23.388;2023-02-01T08:30:18;93945.28;;;2.42;75.27
10261;BME280;5175;42.606;23.388;2023-02-01T08:32:45;93906.00;;;2.29;74.49
10261;BME280;5175;42.606;23.388;2023-02-01T08:35:12;93936.53;;;2.60;73.60
10261;BME280;5175;42.606;23.388;2023-02-01T08:37:39;93914.75;;;2.53;74.82
10261;BME280;5175;42.606;23.388;2023-02-01T08:40:06;93932.22;;;2.77;72.96
10261;BME280;5175;42.606;23.388;2023-02-01T08:42:35;93950.06;;;2.75;72.62
10261;BME280;5175;42.606;23.388;2023-02-01T08:45:21;93949.41;;;2.80;73.10
10261;BME280;5175;42.606;23.388;2023-02-01T08:47:49;93943.44;;;2.84;73.05
10261;BME280;5175;42.606;23.388;2023-02-01T08:50:16;93945.53;;;2.94;72.52
10261;BME280;5175;42.606;23.388;2023-02-01T08:52:43;93950.66;;;2.89;72.27
10261;BME280;5175;42.606;23.388;2023-02-01T08:55:10;93916.66;;;2.87;72.17
10261;BME280;5175;42.606;23.388;2023-02-01T08:57:39;93945.78;;;3.15;72.97
10261;BME280;5175;42.606;23.388;2023-02-01T09:00:07;93943.59;;;3.12;70.34
10261;BME280;5175;42.606;23.388;2023-02-01T09:02:35;93941.53;;;3.03;71.03
10261;BME280;5175;42.606;23.388;2023-02-01T09:05:02;93937.97;;;3.09;70.30
10261;BME280;5175;42.606;23.388;2023-02-01T09:07:29;93936.28;;;3.26;70.94
10261;BME280;5175;42.606;23.388;2023-02-01T09:09:56;93940.84;;;3.31;70.56
10261;BME280;5175;42.606;23.388;2023-02-01T09:12:26;93945.56;;;3.29;70.77
10261;BME280;5175;42.606;23.388;2023-02-01T09:14:55;93948.66;;;3.26;70.19
10261;BME280;5175;42.606;23.388;2023-02-01T09:17:22;93945.06;;;3.32;69.83
10261;BME280;5175;42.606;23.388;2023-02-01T09:19:48;93966.66;;;3.29;70.59
10261;BME280;5175;42.606;23.388;2023-02-01T09:22:15;93947.94;;;3.30;68.97
10261;BME280;5175;42.606;23.388;2023-02-01T09:24:42;93960.34;;;3.18;69.51
10261;BME280;5175;42.606;23.388;2023-02-01T09:27:08;93961.22;;;3.24;70.43
10261;BME280;5175;42.606;23.388;2023-02-01T09:29:35;93964.13;;;3.34;71.43
10261;BME280;5175;42.606;23.388;2023-02-01T09:32:03;93958.16;;;3.38;70.40
10261;BME280;5175;42.606;23.388;2023-02-01T09:34:31;93957.91;;;3.63;69.72
10261;BME280;5175;42.606;23.388;2023-02-01T09:36:58;93960.44;;;3.46;68.73
10261;BME280;5175;42.606;23.388;2023-02-01T09:39:25;93959.63;;;3.57;69.59
10261;BME280;5175;42.606;23.388;2023-02-01T09:41:59;93954.94;;;3.59;67.98
10261;BME280;5175;42.606;23.388;2023-02-01T09:44:39;93945.28;;;3.65;68.83
10261;BME280;5175;42.606;23.388;2023-02-01T09:47:14;93947.56;;;3.73;66.82
10261;BME280;5175;42.606;23.388;2023-02-01T09:49:52;93947.75;;;3.83;66.64
10261;BME280;5175;42.606;23.388;2023-02-01T09:52:25;93940.56;;;3.78;65.33
10261;BME280;5175;42.606;23.388;2023-02-01T09:54:56;93941.81;;;3.76;66.31
10261;BME280;5175;42.606;23.388;2023-02-01T09:57:35;93937.66;;;3.92;66.43
10261;BME280;5175;42.606;23.388;2023-02-01T10:00:15;93936.13;;;3.96;64.67
10261;BME280;5175;42.606;23.388;2023-02-01T10:02:44;93909.16;;;3.65;64.66
10261;BME280;5175;42.606;23.388;2023-02-01T10:05:14;93925.47;;;3.91;64.97
10261;BME280;5175;42.606;23.388;2023-02-01T10:07:49;93927.28;;;4.02;63.78
10261;BME280;5175;42.606;23.388;2023-02-01T10:10:28;93903.69;;;3.95;64.50
10261;BME280;5175;42.606;23.388;2023-02-01T10:13:14;93936.38;;;3.94;63.38
10261;BME280;5175;42.606;23.388;2023-02-01T10:15:58;93901.97;;;3.89;63.05
10261;BME280;5175;42.606;23.388;2023-02-01T10:18:55;93912.19;;;4.25;61.85
10261;BME280;5175;42.606;23.388;2023-02-01T10:21:34;93918.34;;;4.59;61.38
10261;BME280;5175;42.606;23.388;2023-02-01T10:27:00;93898.22;;;5.25;59.27
10261;BME280;5175;42.606;23.388;2023-02-01T10:29:32;93886.06;;;5.45;58.23
10261;BME280;5175;42.606;23.388;2023-02-01T10:32:02;93878.94;;;5.67;57.90
10261;BME280;5175;42.606;23.388;2023-02-01T10:34:36;93899.63;;;5.87;57.41
10261;BME280;5175;42.606;23.388;2023-02-01T10:37:13;93891.38;;;6.05;56.68
10261;BME280;5175;42.606;23.388;2023-02-01T10:39:45;93892.34;;;6.21;56.16
10261;BME280;5175;42.606;23.388;2023-02-01T10:42:13;93901.03;;;5.95;54.82
10261;BME280;5175;42.606;23.388;2023-02-01T10:44:42;93891.56;;;5.22;57.73
10261;BME280;5175;42.606;23.388;2023-02-01T10:47:11;93886.28;;;5.39;57.61
10261;BME280;5175;42.606;23.388;2023-02-01T10:49:45;93885.59;;;5.70;56.57
10261;BME280;5175;42.606;23.388;2023-02-01T10:52:16;93881.00;;;5.60;56.26
10261;BME280;5175;42.606;23.388;2023-02-01T10:54:43;93882.53;;;5.78;55.47
10261;BME280;5175;42.606;23.388;2023-02-01T10:57:20;93885.75;;;5.80;55.76
10261;BME280;5175;42.606;23.388;2023-02-01T10:59:49;93883.38;;;6.27;55.13
10261;BME280;5175;42.606;23.388;2023-02-01T11:02:20;93885.69;;;6.18;54.46
10261;BME280;5175;42.606;23.388;2023-02-01T11:05:01;93881.31;;;5.86;54.85
10261;BME280;5175;42.606;23.388;2023-02-01T11:07:28;93883.19;;;5.85;56.48
10261;BME280;5175;42.606;23.388;2023-02-01T11:09:56;93860.34;;;6.01;55.50
10261;BME280;5175;42.606;23.388;2023-02-01T11:12:33;93893.25;;;5.66;54.47
10261;BME280;5175;42.606;23.388;2023-02-01T11:15:13;93894.00;;;5.62;55.90
10261;BME280;5175;42.606;23.388;2023-02-01T11:17:43;93886.19;;;5.72;56.28
10261;BME280;5175;42.606;23.388;2023-02-01T11:20:15;93897.13;;;5.59;54.71
10261;BME280;5175;42.606;23.388;2023-02-01T11:22:47;93899.16;;;5.35;55.19
10261;BME280;5175;42.606;23.388;2023-02-01T11:25:16;93891.34;;;5.24;55.80
10261;BME280;5175;42.606;23.388;2023-02-01T11:27:44;93872.59;;;5.08;56.64
10261;BME280;5175;42.606;23.388;2023-02-01T11:30:16;93874.34;;;5.36;56.53
10261;BME280;5175;42.606;23.388;2023-02-01T11:32:46;93851.50;;;5.14;55.91
10261;BME280;5175;42.606;23.388;2023-02-01T11:35:18;93809.84;;;5.21;55.41
10261;BME280;5175;42.606;23.388;2023-02-01T11:37:52;93863.91;;;5.90;55.89
10261;BME280;5175;42.606;23.388;2023-02-01T11:40:27;93872.63;;;6.12;53.83
10261;BME280;5175;42.606;23.388;2023-02-01T11:42:56;93872.59;;;6.34;53.49
10261;BME280;5175;42.606;23.388;2023-02-01T11:45:28;93874.75;;;6.37;53.34
10261;BME280;5175;42.606;23.388;2023-02-01T11:47:55;93856.84;;;6.49;52.44
10261;BME280;5175;42.606;23.388;2023-02-01T11:50:31;93866.88;;;6.42;52.80
10261;BME280;5175;42.606;23.388;2023-02-01T11:53:20;93857.94;;;5.99;53.27
10261;BME280;5175;42.606;23.388;2023-02-01T11:55:58;93853.94;;;5.97;55.09
10261;BME280;5175;42.606;23.388;2023-02-01T11:58:55;93832.00;;;5.58;54.59
10261;BME280;5175;42.606;23.388;2023-02-01T12:01:42;93834.28;;;5.71;56.32
10261;BME280;5175;42.606;23.388;2023-02-01T12:04:36;93840.22;;;5.40;55.05
10261;BME280;5175;42.606;23.388;2023-02-01T12:07:16;93827.09;;;5.66;55.30
10261;BME280;5175;42.606;23.388;2023-02-01T12:09:55;93854.41;;;5.50;55.78
10261;BME280;5175;42.606;23.388;2023-02-01T12:12:36;93839.81;;;5.91;54.50
10261;BME280;5175;42.606;23.388;2023-02-01T12:15:19;93829.16;;;6.08;52.62
10261;BME280;5175;42.606;23.388;2023-02-01T12:18:10;93823.91;;;6.13;53.76
10261;BME280;5175;42.606;23.388;2023-02-01T12:21:03;93840.94;;;6.49;53.21
10261;BME280;5175;42.606;23.388;2023-02-01T12:23:43;93836.16;;;6.46;52.38
10261;BME280;5175;42.606;23.388;2023-02-01T12:29:23;93832.47;;;6.47;50.20
10261;BME280;5175;42.606;23.388;2023-02-01T12:32:07;93831.97;;;6.23;51.24
10261;BME280;5175;42.606;23.388;2023-02-01T12:34:55;93823.53;;;6.26;52.13
10261;BME280;5175;42.606;23.388;2023-02-01T12:37:39;93833.06;;;6.85;52.53
10261;BME280;5175;42.606;23.388;2023-02-01T12:40:20;93837.22;;;6.76;50.64
10261;BME280;5175;42.606;23.388;2023-02-01T12:42:56;93819.38;;;6.67;51.31
10261;BME280;5175;42.606;23.388;2023-02-01T12:45:31;93842.84;;;6.85;50.09
10261;BME280;5175;42.606;23.388;2023-02-01T12:48:11;93838.91;;;6.87;49.73
10261;BME280;5175;42.606;23.388;2023-02-01T12:50:45;93845.09;;;7.03;51.63
10261;BME280;5175;42.606;23.388;2023-02-01T12:53:16;93836.25;;;6.87;50.95
10261;BME280;5175;42.606;23.388;2023-02-01T12:55:50;93839.81;;;6.71;50.39
10261;BME280;5175;42.606;23.388;2023-02-01T12:58:22;93843.81;;;6.74;50.46
10261;BME280;5175;42.606;23.388;2023-02-01T13:00:57;93842.81;;;7.22;49.63
10261;BME280;5175;42.606;23.388;2023-02-01T13:03:34;93819.16;;;7.10;48.14
10261;BME280;5175;42.606;23.388;2023-02-01T13:06:06;93798.78;;;6.47;49.27
10261;BME280;5175;42.606;23.388;2023-02-01T13:08:40;93854.72;;;6.77;48.91
10261;BME280;5175;42.606;23.388;2023-02-01T13:11:14;93821.28;;;6.45;50.23
10261;BME280;5175;42.606;23.388;2023-02-01T13:13:52;93825.16;;;6.96;49.78
10261;BME280;5175;42.606;23.388;2023-02-01T13:16:25;93824.75;;;6.77;49.33
10261;BME280;5175;42.606;23.388;2023-02-01T13:19:00;93830.16;;;6.92;47.54
10261;BME280;5175;42.606;23.388;2023-02-01T13:21:31;93838.31;;;6.80;48.02
10261;BME280;5175;42.606;23.388;2023-02-01T13:24:00;93834.97;;;6.95;49.01
10261;BME280;5175;42.606;23.388;2023-02-01T13:26:28;93826.78;;;6.65;47.11
10261;BME280;5175;42.606;23.388;2023-02-01T13:28:58;93834.41;;;6.88;48.54
10261;BME280;5175;42.606;23.388;2023-02-01T13:31:52;93824.66;;;7.04;47.08
10261;BME280;5175;42.606;23.388;2023-02-01T13:34:45;93832.91;;;7.07;46.67
10261;BME280;5175;42.606;23.388;2023-02-01T13:40:33;93837.81;;;7.72;44.91
10261;BME280;5175;42.606;23.388;2023-02-01T13:43:06;93834.09;;;7.78;45.15